createdAt,value
2023-01-27T00:01:01.407Z,19.13
2023-01-27T00:03:29.266Z,17.42
2023-01-27T00:06:00.999Z,17.95
2023-01-27T00:08:29.492Z,18.42
2023-01-27T00:11:13.365Z,18.85
2023-01-27T00:13:41.143Z,18.30
2023-01-27T00:16:08.999Z,18.87
2023-01-27T00:18:36.835Z,20.67
2023-01-27T00:21:23.854Z,21.43
2023-01-27T00:24:09.712Z,23.38
2023-01-27T00:26:37.492Z,17.88
2023-01-27T00:29:05.287Z,19.83
2023-01-27T00:31:50.539Z,19.23
2023-01-27T00:34:18.303Z,19.33
2023-01-27T00:36:47.454Z,18.70
2023-01-27T00:39:15.291Z,18.30
2023-01-27T00:41:43.128Z,17.17
2023-01-27T00:44:13.037Z,16.67
2023-01-27T00:46:41.409Z,17.03
2023-01-27T00:49:09.923Z,15.88
2023-01-27T00:51:37.815Z,17.08
2023-01-27T00:54:07.197Z,14.15
2023-01-27T00:56:35.095Z,13.57
2023-01-27T00:59:02.939Z,13.50
2023-01-27T01:01:31.367Z,15.35
2023-01-27T01:03:59.704Z,14.27
2023-01-27T01:06:28.707Z,14.70
2023-01-27T01:08:57.570Z,15.70
2023-01-27T01:11:27.362Z,16.35
2023-01-27T01:13:56.517Z,16.42
2023-01-27T01:16:26.066Z,15.88
2023-01-27T01:18:54.236Z,17.40
2023-01-27T01:21:22.298Z,17.35
2023-01-27T01:23:50.267Z,15.60
2023-01-27T01:26:18.701Z,15.60
2023-01-27T01:28:48.558Z,14.13
2023-01-27T01:31:18.989Z,13.80
2023-01-27T01:33:46.875Z,13.43
2023-01-27T01:36:16.924Z,14.02
2023-01-27T01:38:45.290Z,14.90
2023-01-27T01:41:15.180Z,14.18
2023-01-27T01:43:43.174Z,14.27
2023-01-27T01:46:13.520Z,15.23
2023-01-27T01:48:46.851Z,16.30
2023-01-27T01:51:18.647Z,15.07
2023-01-27T01:53:51.805Z,15.95
2023-01-27T01:56:24.112Z,15.43
2023-01-27T01:58:53.584Z,14.85
2023-01-27T02:01:23.387Z,13.18
2023-01-27T02:03:55.126Z,14.15
2023-01-27T02:06:23.192Z,13.75
2023-01-27T02:08:52.401Z,13.73
2023-01-27T02:11:20.453Z,14.35
2023-01-27T02:13:48.546Z,15.57
2023-01-27T02:16:16.476Z,14.88
2023-01-27T02:18:45.683Z,12.70
2023-01-27T02:21:13.577Z,12.57
2023-01-27T02:24:00.909Z,12.88
2023-01-27T02:26:33.111Z,13.48
2023-01-27T02:29:03.887Z,13.27
2023-01-27T02:31:31.882Z,15.70
2023-01-27T02:34:04.271Z,14.77
2023-01-27T02:36:34.704Z,15.27
2023-01-27T02:39:03.734Z,15.82
2023-01-27T02:41:37.251Z,17.08
2023-01-27T02:44:05.396Z,16.67
2023-01-27T02:46:33.385Z,16.92
2023-01-27T02:49:01.815Z,18.95
2023-01-27T02:51:29.660Z,19.88
2023-01-27T02:53:57.484Z,21.15
2023-01-27T02:56:27.217Z,19.10
2023-01-27T02:58:56.775Z,19.70
2023-01-27T03:01:25.586Z,21.20
2023-01-27T03:03:53.408Z,18.95
2023-01-27T03:06:21.901Z,18.98
2023-01-27T03:08:49.890Z,18.90
2023-01-27T03:11:38.668Z,19.77
2023-01-27T03:14:08.009Z,19.30
2023-01-27T03:16:53.647Z,19.70
2023-01-27T03:19:21.487Z,18.75
2023-01-27T03:21:51.078Z,19.98
2023-01-27T03:24:19.246Z,18.35
2023-01-27T03:26:47.503Z,19.17
2023-01-27T03:29:34.646Z,20.40
2023-01-27T03:32:02.385Z,19.35
2023-01-27T03:34:30.131Z,20.48
2023-01-27T03:37:15.533Z,18.50
2023-01-27T03:40:00.943Z,18.02
2023-01-27T03:42:46.372Z,19.00
2023-01-27T03:45:32.768Z,18.75
2023-01-27T03:48:00.725Z,19.17
2023-01-27T03:50:37.279Z,18.83
2023-01-27T03:53:06.310Z,21.17
2023-01-27T03:55:36.006Z,20.67
2023-01-27T03:58:14.862Z,21.80
2023-01-27T04:00:43.976Z,20.15
2023-01-27T04:03:29.595Z,18.10
2023-01-27T04:06:15.043Z,19.47
2023-01-27T04:08:44.223Z,19.38
2023-01-27T04:11:31.767Z,19.65
2023-01-27T04:14:01.975Z,20.15
2023-01-27T04:16:31.654Z,21.02
2023-01-27T04:18:59.940Z,21.70
2023-01-27T04:21:27.905Z,23.05
2023-01-27T04:23:55.715Z,21.52
2023-01-27T04:26:24.114Z,23.77
2023-01-27T04:28:52.149Z,23.63
2023-01-27T04:31:20.003Z,21.67
2023-01-27T04:33:49.493Z,20.77
2023-01-27T04:36:17.444Z,22.77
2023-01-27T04:38:45.172Z,22.75
2023-01-27T04:41:12.939Z,23.52
2023-01-27T04:43:40.757Z,20.05
2023-01-27T04:46:08.554Z,22.52
2023-01-27T04:48:36.503Z,22.05
2023-01-27T04:51:05.849Z,19.05
2023-01-27T04:53:33.724Z,18.55
2023-01-27T04:56:08.600Z,17.27
2023-01-27T04:58:36.357Z,21.38
2023-01-27T05:01:04.306Z,19.03
2023-01-27T05:03:32.165Z,19.98
2023-01-27T05:05:59.927Z,20.97
2023-01-27T05:08:29.067Z,20.38
2023-01-27T05:10:56.877Z,21.92
2023-01-27T05:13:24.644Z,22.25
2023-01-27T05:15:52.443Z,22.55
2023-01-27T05:18:20.352Z,23.38
2023-01-27T05:20:48.490Z,21.98
2023-01-27T05:23:34.491Z,22.08
2023-01-27T05:26:08.911Z,23.52
2023-01-27T05:28:38.379Z,22.67
2023-01-27T05:31:08.615Z,22.17
2023-01-27T05:33:36.499Z,24.48
2023-01-27T05:36:06.415Z,22.52
2023-01-27T05:38:34.384Z,22.97
2023-01-27T05:41:05.359Z,23.05
2023-01-27T05:43:35.525Z,22.10
2023-01-27T05:46:08.373Z,22.73
2023-01-27T05:48:36.733Z,24.48
2023-01-27T05:51:05.390Z,22.80
2023-01-27T05:53:34.044Z,21.95
2023-01-27T05:56:05.353Z,23.92
2023-01-27T05:58:33.611Z,23.60
2023-01-27T06:01:08.696Z,24.15
2023-01-27T06:03:36.696Z,23.80
2023-01-27T06:06:05.152Z,23.27
2023-01-27T06:08:33.342Z,25.48
2023-01-27T06:11:01.698Z,24.30
2023-01-27T06:13:31.378Z,25.77
2023-01-27T06:15:59.369Z,25.88
2023-01-27T06:18:27.267Z,23.45
2023-01-27T06:20:58.725Z,24.60
2023-01-27T06:23:27.447Z,24.02
2023-01-27T06:25:56.462Z,23.50
2023-01-27T06:28:29.277Z,25.92
2023-01-27T06:31:06.491Z,24.90
2023-01-27T06:33:34.342Z,26.10
2023-01-27T06:36:03.420Z,22.70
2023-01-27T06:38:31.268Z,26.65
2023-01-27T06:40:59.265Z,24.80
2023-01-27T06:43:27.518Z,26.77
2023-01-27T06:45:57.432Z,25.33
2023-01-27T06:48:27.043Z,26.60
2023-01-27T06:50:54.896Z,26.98
2023-01-27T06:53:23.465Z,27.02
2023-01-27T06:55:56.537Z,28.20
2023-01-27T06:58:24.389Z,27.70
2023-01-27T07:00:52.953Z,29.85
2023-01-27T07:03:20.741Z,30.58
2023-01-27T07:05:49.893Z,30.65
2023-01-27T07:08:17.799Z,29.23
2023-01-27T07:10:45.680Z,30.05
2023-01-27T07:13:14.928Z,28.70
2023-01-27T07:15:43.137Z,32.63
2023-01-27T07:18:11.855Z,29.80
2023-01-27T07:20:39.691Z,35.38
2023-01-27T07:23:10.374Z,33.65
2023-01-27T07:25:39.039Z,34.40
2023-01-27T07:28:07.320Z,32.38
2023-01-27T07:30:35.430Z,33.22
2023-01-27T07:33:07.169Z,36.67
2023-01-27T07:35:36.078Z,37.08
2023-01-27T07:38:04.193Z,34.92
2023-01-27T07:40:33.565Z,33.22
2023-01-27T07:43:01.618Z,32.58
2023-01-27T07:45:30.280Z,33.60
2023-01-27T07:48:02.093Z,31.27
2023-01-27T07:50:30.339Z,34.50
2023-01-27T07:53:00.882Z,33.90
2023-01-27T07:55:28.823Z,33.53
2023-01-27T07:57:58.220Z,32.28
2023-01-27T08:00:28.040Z,35.42
2023-01-27T08:02:56.841Z,36.50
2023-01-27T08:05:25.262Z,30.65
2023-01-27T08:07:55.177Z,31.27
2023-01-27T08:10:24.009Z,33.28
2023-01-27T08:12:51.834Z,34.22
2023-01-27T08:15:20.992Z,34.40
2023-01-27T08:17:54.601Z,34.67
2023-01-27T08:20:22.671Z,33.05
2023-01-27T08:22:50.490Z,36.92
2023-01-27T08:25:18.567Z,37.13
2023-01-27T08:27:46.480Z,36.17
2023-01-27T08:30:15.061Z,36.58
2023-01-27T08:32:44.420Z,37.05
2023-01-27T08:35:12.406Z,34.35
2023-01-27T08:37:40.251Z,36.25
2023-01-27T08:40:09.115Z,35.65
2023-01-27T08:42:36.925Z,38.15
2023-01-27T08:45:05.441Z,35.40
2023-01-27T08:47:33.215Z,40.08
2023-01-27T08:50:02.360Z,39.47
2023-01-27T08:52:30.733Z,42.17
2023-01-27T08:54:59.146Z,42.47
2023-01-27T08:57:27.168Z,37.78
2023-01-27T08:59:55.225Z,38.83
2023-01-27T09:02:24.284Z,38.92
2023-01-27T09:04:52.911Z,36.65
2023-01-27T09:07:22.139Z,38.90
2023-01-27T09:09:51.269Z,34.95
2023-01-27T09:12:23.896Z,37.53
2023-01-27T09:14:51.700Z,35.63
2023-01-27T09:17:19.545Z,34.97
2023-01-27T09:19:47.352Z,39.58
2023-01-27T09:22:15.112Z,39.33
2023-01-27T09:24:44.225Z,33.17
2023-01-27T09:27:12.247Z,35.15
2023-01-27T09:29:40.060Z,33.65
2023-01-27T09:32:09.172Z,35.60
2023-01-27T09:34:37.127Z,29.70
2023-01-27T09:37:09.857Z,31.52
2023-01-27T09:39:41.448Z,29.92
2023-01-27T09:42:28.515Z,29.85
2023-01-27T09:45:26.312Z,31.17
2023-01-27T09:48:07.330Z,29.95
2023-01-27T09:50:45.157Z,30.15
2023-01-27T09:53:34.138Z,29.90
2023-01-27T09:56:11.407Z,27.02
2023-01-27T09:58:53.188Z,28.85
2023-01-27T10:01:28.888Z,29.20
2023-01-27T10:04:34.551Z,26.98
2023-01-27T10:07:18.115Z,28.30
2023-01-27T10:10:20.646Z,26.25
2023-01-27T10:13:00.409Z,25.15
2023-01-27T10:15:40.799Z,22.53
2023-01-27T10:18:24.900Z,20.60
2023-01-27T10:21:01.752Z,25.58
2023-01-27T10:23:42.166Z,22.27
2023-01-27T10:26:21.675Z,22.95
2023-01-27T10:28:52.844Z,23.95
2023-01-27T10:31:27.620Z,23.50
2023-01-27T10:33:58.240Z,23.00
2023-01-27T10:36:29.876Z,23.17
2023-01-27T10:39:11.198Z,22.55
2023-01-27T10:41:48.461Z,21.05
2023-01-27T10:44:36.543Z,20.55
2023-01-27T10:47:12.653Z,21.67
2023-01-27T10:49:46.023Z,22.15
2023-01-27T10:52:19.343Z,21.70
2023-01-27T10:54:52.687Z,22.85
2023-01-27T10:57:26.102Z,23.88
2023-01-27T11:03:00.485Z,23.73
2023-01-27T11:05:32.375Z,23.60
2023-01-27T11:08:04.845Z,22.95
2023-01-27T11:10:38.254Z,20.55
2023-01-27T11:13:07.937Z,21.55
2023-01-27T11:15:36.085Z,23.25
2023-01-27T11:18:13.668Z,24.50
2023-01-27T11:20:45.483Z,25.35
2023-01-27T11:23:18.704Z,25.15
2023-01-27T11:25:52.762Z,22.85
2023-01-27T11:28:32.051Z,24.40
2023-01-27T11:31:08.813Z,23.80
2023-01-27T11:33:51.679Z,23.92
2023-01-27T11:36:19.483Z,22.50
2023-01-27T11:38:48.085Z,22.55
2023-01-27T11:41:16.099Z,21.83
2023-01-27T11:43:43.908Z,23.88
2023-01-27T11:46:17.160Z,22.17
2023-01-27T11:48:49.354Z,23.27
2023-01-27T11:51:21.718Z,23.05
2023-01-27T11:53:53.844Z,19.92
2023-01-27T11:56:21.898Z,20.92
2023-01-27T11:58:55.607Z,21.77
2023-01-27T12:01:29.570Z,20.95
2023-01-27T12:04:04.430Z,19.13
2023-01-27T12:06:39.161Z,22.73
2023-01-27T12:09:07.055Z,20.88
2023-01-27T12:11:34.849Z,20.90
2023-01-27T12:14:04.957Z,23.42
2023-01-27T12:16:44.861Z,23.75
2023-01-27T12:19:26.566Z,21.40
2023-01-27T12:21:58.818Z,23.83
2023-01-27T12:24:30.858Z,22.47
2023-01-27T12:27:00.185Z,22.33
2023-01-27T12:29:41.196Z,24.33
2023-01-27T12:32:17.229Z,23.00
2023-01-27T12:34:50.637Z,21.57
2023-01-27T12:37:23.513Z,21.13
2023-01-27T12:39:56.954Z,21.92
2023-01-27T12:42:47.051Z,19.98
2023-01-27T12:45:35.024Z,21.45
2023-01-27T12:48:20.420Z,19.15
2023-01-27T12:50:58.107Z,17.70
2023-01-27T12:53:27.738Z,18.90
2023-01-27T12:55:59.489Z,20.27
2023-01-27T12:58:34.355Z,20.85
2023-01-27T13:01:04.392Z,19.90
2023-01-27T13:03:37.196Z,21.40
2023-01-27T13:06:07.924Z,22.13
2023-01-27T13:08:40.335Z,20.48
2023-01-27T13:11:08.603Z,21.27
2023-01-27T13:13:36.643Z,21.13
2023-01-27T13:16:09.947Z,22.48
2023-01-27T13:18:40.680Z,24.30
2023-01-27T13:21:17.459Z,22.52
2023-01-27T13:23:47.137Z,25.23
2023-01-27T13:26:19.890Z,23.20
2023-01-27T13:28:53.966Z,22.92
2023-01-27T13:31:37.506Z,23.50
2023-01-27T13:34:14.714Z,21.60
2023-01-27T13:36:49.659Z,21.33
2023-01-27T13:39:25.975Z,23.05
2023-01-27T13:42:01.583Z,22.60
2023-01-27T13:44:35.050Z,21.83
2023-01-27T13:47:05.582Z,23.57
2023-01-27T13:49:38.710Z,22.35
2023-01-27T13:52:08.450Z,20.67
2023-01-27T13:54:36.291Z,21.55
2023-01-27T13:57:21.336Z,23.23
2023-01-27T14:00:01.496Z,22.52
2023-01-27T14:02:43.347Z,22.27
2023-01-27T14:05:30.624Z,20.50
2023-01-27T14:08:17.939Z,22.35
2023-01-27T14:11:02.525Z,22.27
2023-01-27T14:13:44.545Z,26.23
2023-01-27T14:16:19.861Z,22.92
2023-01-27T14:18:52.855Z,26.00
2023-01-27T14:21:40.229Z,25.35
2023-01-27T14:24:24.193Z,25.92
2023-01-27T14:26:55.942Z,24.88
2023-01-27T14:29:34.395Z,26.58
2023-01-27T14:32:11.347Z,22.35
2023-01-27T14:34:57.032Z,22.52
2023-01-27T14:37:31.996Z,22.88
2023-01-27T14:40:19.096Z,28.05
2023-01-27T14:43:01.343Z,25.80
2023-01-27T14:45:33.953Z,23.98
2023-01-27T14:48:12.492Z,23.80
2023-01-27T14:50:49.465Z,23.75
2023-01-27T14:53:34.540Z,23.52
2023-01-27T14:56:13.033Z,25.27
2023-01-27T14:58:53.812Z,22.23
2023-01-27T15:01:29.493Z,24.88
2023-01-27T15:04:35.398Z,23.67
2023-01-27T15:07:09.902Z,22.38
2023-01-27T15:09:46.549Z,22.00
2023-01-27T15:12:32.872Z,22.53
2023-01-27T15:15:50.638Z,21.02
2023-01-27T15:18:45.647Z,22.38
2023-01-27T15:21:32.514Z,24.67
2023-01-27T15:24:29.337Z,21.23
2023-01-27T15:26:58.106Z,23.35
2023-01-27T15:29:30.635Z,21.77
2023-01-27T15:32:26.850Z,23.85
2023-01-27T15:35:15.923Z,24.40
2023-01-27T15:38:00.153Z,22.80
2023-01-27T15:40:28.462Z,24.23
2023-01-27T15:43:04.927Z,23.27
2023-01-27T15:45:35.720Z,23.33
2023-01-27T15:48:07.656Z,24.65
2023-01-27T15:50:38.750Z,23.77
2023-01-27T15:53:15.398Z,22.90
2023-01-27T15:55:50.505Z,22.70
2023-01-27T15:58:25.745Z,25.00
2023-01-27T16:00:57.459Z,22.67
2023-01-27T16:03:28.579Z,22.70
2023-01-27T16:06:00.251Z,22.73
2023-01-27T16:08:38.526Z,22.42
2023-01-27T16:11:39.494Z,23.63
2023-01-27T16:14:49.817Z,23.75
2023-01-27T16:17:25.566Z,26.77
2023-01-27T16:20:01.684Z,24.45
2023-01-27T16:22:32.295Z,26.67
2023-01-27T16:25:12.180Z,26.63
2023-01-27T16:27:46.845Z,27.42
2023-01-27T16:30:21.072Z,29.95
2023-01-27T16:33:02.972Z,27.92
2023-01-27T16:35:34.229Z,31.15
2023-01-27T16:38:15.302Z,28.85
2023-01-27T16:40:50.220Z,30.38
2023-01-27T16:43:20.642Z,33.17
2023-01-27T16:45:51.561Z,32.13
2023-01-27T16:48:35.085Z,31.77
2023-01-27T16:51:18.722Z,31.05
2023-01-27T16:53:49.243Z,31.40
2023-01-27T16:56:23.251Z,29.50
2023-01-27T16:58:52.086Z,28.23
2023-01-27T17:01:29.665Z,29.92
2023-01-27T17:04:14.070Z,29.35
2023-01-27T17:06:47.077Z,29.20
2023-01-27T17:09:24.208Z,27.67
2023-01-27T17:11:53.533Z,26.52
2023-01-27T17:14:30.571Z,26.20
2023-01-27T17:17:01.780Z,26.60
2023-01-27T17:19:33.566Z,25.45
2023-01-27T17:22:02.766Z,27.17
2023-01-27T17:24:32.683Z,26.92
2023-01-27T17:27:04.181Z,28.95
2023-01-27T17:29:35.658Z,28.65
2023-01-27T17:32:03.876Z,27.10
2023-01-27T17:34:33.801Z,26.85
2023-01-27T17:37:13.602Z,27.77
2023-01-27T17:39:41.431Z,28.95
2023-01-27T17:42:13.544Z,30.87
2023-01-27T17:44:41.331Z,29.70
2023-01-27T17:47:09.259Z,29.92
2023-01-27T17:49:40.436Z,28.25
2023-01-27T17:52:10.061Z,29.17
2023-01-27T17:54:41.419Z,29.88
2023-01-27T17:57:17.191Z,29.23
2023-01-27T17:59:47.895Z,31.23
2023-01-27T18:02:22.130Z,31.15
2023-01-27T18:04:52.086Z,29.27
2023-01-27T18:07:20.223Z,31.13
2023-01-27T18:09:54.257Z,28.60
2023-01-27T18:12:34.327Z,27.75
2023-01-27T18:15:49.799Z,29.02
2023-01-27T18:18:23.910Z,26.30
2023-01-27T18:21:13.002Z,27.52
2023-01-27T18:23:45.193Z,24.83
2023-01-27T18:26:18.617Z,25.02
2023-01-27T18:28:50.129Z,23.75
2023-01-27T18:31:21.211Z,25.63
2023-01-27T18:33:57.652Z,23.00
2023-01-27T18:36:33.453Z,23.67
2023-01-27T18:39:01.774Z,23.23
2023-01-27T18:41:33.230Z,23.13
2023-01-27T18:44:01.596Z,24.38
2023-01-27T18:46:29.449Z,25.92
2023-01-27T18:48:59.580Z,23.85
2023-01-27T18:51:28.688Z,25.38
2023-01-27T18:53:56.463Z,24.00
2023-01-27T18:56:24.227Z,23.98
2023-01-27T18:58:54.002Z,23.20
2023-01-27T19:01:24.096Z,25.42
2023-01-27T19:03:55.385Z,22.92
2023-01-27T19:06:23.204Z,24.83
2023-01-27T19:08:52.959Z,24.52
2023-01-27T19:11:20.703Z,22.80
2023-01-27T19:13:48.778Z,23.05
2023-01-27T19:16:18.708Z,24.52
2023-01-27T19:18:46.878Z,23.92
2023-01-27T19:21:16.357Z,24.20
2023-01-27T19:23:45.730Z,23.73
2023-01-27T19:26:19.555Z,26.25
2023-01-27T19:28:50.012Z,31.08
2023-01-27T19:31:17.855Z,28.35
2023-01-27T19:33:47.316Z,29.23
2023-01-27T19:36:25.222Z,30.23
2023-01-27T19:38:58.456Z,28.50
2023-01-27T19:41:28.010Z,29.63
2023-01-27T19:43:55.975Z,29.63
2023-01-27T19:46:23.907Z,30.00
2023-01-27T19:48:52.246Z,29.10
2023-01-27T19:51:22.105Z,28.75
2023-01-27T19:53:49.884Z,30.58
2023-01-27T19:56:19.330Z,28.63
2023-01-27T19:58:51.658Z,27.52
2023-01-27T20:01:19.945Z,27.55
2023-01-27T20:03:48.049Z,26.45
2023-01-27T20:06:17.936Z,30.38
2023-01-27T20:08:46.243Z,27.95
2023-01-27T20:11:30.293Z,28.10
2023-01-27T20:14:00.003Z,26.58
2023-01-27T20:16:28.248Z,27.92
2023-01-27T20:18:56.818Z,26.77
2023-01-27T20:21:26.014Z,28.45
2023-01-27T20:23:53.863Z,29.42
2023-01-27T20:26:22.628Z,26.58
2023-01-27T20:28:51.128Z,27.85
2023-01-27T20:31:23.074Z,28.33
2023-01-27T20:33:51.138Z,26.65
2023-01-27T20:36:20.841Z,28.38
2023-01-27T20:38:48.979Z,26.48
2023-01-27T20:41:18.579Z,27.30
2023-01-27T20:43:46.418Z,26.33
2023-01-27T20:46:17.165Z,25.87
2023-01-27T20:48:46.792Z,25.55
2023-01-27T20:51:16.369Z,26.67
2023-01-27T20:53:46.054Z,26.83
2023-01-27T20:56:15.783Z,26.63
2023-01-27T20:58:44.097Z,24.70
2023-01-27T21:01:13.797Z,26.00
2023-01-27T21:03:42.265Z,26.58
2023-01-27T21:06:12.840Z,27.75
2023-01-27T21:08:42.521Z,26.23
2023-01-27T21:11:12.768Z,26.98
2023-01-27T21:13:40.608Z,25.80
2023-01-27T21:16:09.190Z,25.65
2023-01-27T21:18:37.460Z,26.67
2023-01-27T21:21:06.087Z,24.65
2023-01-27T21:23:35.651Z,24.92
2023-01-27T21:26:05.278Z,25.83
2023-01-27T21:28:34.259Z,24.15
2023-01-27T21:31:07.155Z,23.52
2023-01-27T21:33:36.502Z,24.38
2023-01-27T21:36:04.909Z,24.20
2023-01-27T21:38:32.880Z,23.33
2023-01-27T21:41:06.639Z,24.25
2023-01-27T21:43:51.799Z,25.13
2023-01-27T21:46:20.070Z,23.70
2023-01-27T21:48:48.139Z,23.38
2023-01-27T21:51:16.697Z,25.23
2023-01-27T21:53:44.499Z,23.77
2023-01-27T21:56:13.629Z,23.15
2023-01-27T21:58:41.493Z,25.90
2023-01-27T22:01:10.843Z,24.00
2023-01-27T22:03:39.416Z,23.98
2023-01-27T22:06:08.883Z,23.75
2023-01-27T22:08:37.467Z,22.33
2023-01-27T22:11:05.797Z,24.98
2023-01-27T22:13:35.718Z,24.70
2023-01-27T22:16:04.518Z,24.10
2023-01-27T22:18:32.464Z,23.55
2023-01-27T22:21:02.350Z,22.60
2023-01-27T22:23:30.176Z,23.67
2023-01-27T22:25:58.071Z,23.55
2023-01-27T22:28:26.825Z,23.60
2023-01-27T22:30:55.974Z,23.20
2023-01-27T22:33:23.781Z,23.05
2023-01-27T22:36:00.302Z,24.55
2023-01-27T22:38:28.148Z,24.33
2023-01-27T22:40:59.337Z,23.58
2023-01-27T22:43:27.160Z,23.52
2023-01-27T22:45:56.340Z,25.52
2023-01-27T22:48:24.221Z,25.90
2023-01-27T22:50:52.037Z,25.13
2023-01-27T22:53:19.864Z,24.00
2023-01-27T22:55:47.643Z,24.58
2023-01-27T22:58:15.499Z,25.40
2023-01-27T23:00:43.659Z,24.17
2023-01-27T23:03:12.777Z,23.77
2023-01-27T23:05:40.609Z,23.52
2023-01-27T23:08:08.489Z,24.73
2023-01-27T23:10:36.337Z,24.73
2023-01-27T23:13:04.179Z,25.77
2023-01-27T23:15:31.993Z,24.98
2023-01-27T23:18:00.030Z,24.65
2023-01-27T23:20:29.221Z,24.80
2023-01-27T23:22:56.978Z,24.75
2023-01-27T23:25:24.760Z,25.27
2023-01-27T23:27:52.613Z,25.67
2023-01-27T23:30:20.735Z,24.50
2023-01-27T23:32:48.488Z,25.08
2023-01-27T23:35:16.690Z,24.83
2023-01-27T23:37:46.004Z,24.73
2023-01-27T23:40:14.682Z,24.40
2023-01-27T23:42:43.128Z,25.67
2023-01-27T23:45:11.675Z,25.88
2023-01-27T23:47:39.568Z,25.95
2023-01-27T23:50:08.030Z,27.00
2023-01-27T23:52:36.341Z,26.95
2023-01-27T23:55:05.985Z,26.90
2023-01-27T23:57:33.786Z,27.85
